Weather at Campo di Volo Pachino Fly Dream

Public forecast

Using degrees Celsius for public forecast. Weather courtesy of forecast.io.

Closest aviation weather report (METAR) to Campo di Volo Pachino Fly Dream

Closest report is Comiso Airport, 26.1 nm (48.3 km) NW. Retrieved 2020/11/29 16:20 UTC (0 seconds ago):

LICB 291620Z AUTO 05006KT 9999 -RA FEW054 BKN066 12/11 Q1007

Closest aviation forecast (TAF) to Campo di Volo Pachino Fly Dream

Closest forecast is Sigonella Navy Air Base, 40.9 nm (75.7 km) N. Retrieved 2020/11/29 12:25 UTC (4 hours ago):

TAF LICZ 291100Z 2912/3012 30003KT 9999 FEW050 TEMPO 2912/2916 6000 TSRA SCT025 FEW040TCU